sensor_id;sensor_type;location;lat;lon;timestamp;P1;durP1;ratioP1;P2;durP2;ratioP2
19030;SDS011;9648;51.130;13.978;2022-10-13T00:00:53;19.13;;;9.05;;
19030;SDS011;9648;51.130;13.978;2022-10-13T00:03:20;13.40;;;8.18;;
19030;SDS011;9648;51.130;13.978;2022-10-13T00:05:48;12.25;;;8.10;;
19030;SDS011;9648;51.130;13.978;2022-10-13T00:08:16;16.00;;;8.48;;
19030;SDS011;9648;51.130;13.978;2022-10-13T00:10:45;14.80;;;8.05;;
19030;SDS011;9648;51.130;13.978;2022-10-13T00:13:13;11.07;;;7.37;;
19030;SDS011;9648;51.130;13.978;2022-10-13T00:15:42;15.52;;;8.95;;
19030;SDS011;9648;51.130;13.978;2022-10-13T00:18:10;12.20;;;8.13;;
19030;SDS011;9648;51.130;13.978;2022-10-13T00:20:39;12.55;;;7.28;;
19030;SDS011;9648;51.130;13.978;2022-10-13T00:23:06;12.75;;;7.85;;
19030;SDS011;9648;51.130;13.978;2022-10-13T00:25:33;14.60;;;7.80;;
19030;SDS011;9648;51.130;13.978;2022-10-13T00:28:00;14.70;;;8.30;;
19030;SDS011;9648;51.130;13.978;2022-10-13T00:30:27;14.77;;;8.25;;
19030;SDS011;9648;51.130;13.978;2022-10-13T00:32:55;14.18;;;7.88;;
19030;SDS011;9648;51.130;13.978;2022-10-13T00:35:22;17.02;;;9.10;;
19030;SDS011;9648;51.130;13.978;2022-10-13T00:37:49;18.77;;;8.93;;
19030;SDS011;9648;51.130;13.978;2022-10-13T00:40:17;13.23;;;8.05;;
19030;SDS011;9648;51.130;13.978;2022-10-13T00:42:44;16.35;;;8.50;;
19030;SDS011;9648;51.130;13.978;2022-10-13T00:45:19;13.18;;;8.35;;
19030;SDS011;9648;51.130;13.978;2022-10-13T00:47:48;15.90;;;8.80;;
19030;SDS011;9648;51.130;13.978;2022-10-13T00:50:21;11.37;;;7.60;;
19030;SDS011;9648;51.130;13.978;2022-10-13T00:52:53;13.23;;;7.72;;
19030;SDS011;9648;51.130;13.978;2022-10-13T00:55:23;12.77;;;7.82;;
19030;SDS011;9648;51.130;13.978;2022-10-13T00:57:52;12.90;;;7.88;;
19030;SDS011;9648;51.130;13.978;2022-10-13T01:00:22;17.20;;;9.48;;
19030;SDS011;9648;51.130;13.978;2022-10-13T01:02:50;12.13;;;7.82;;
19030;SDS011;9648;51.130;13.978;2022-10-13T01:05:17;12.63;;;7.70;;
19030;SDS011;9648;51.130;13.978;2022-10-13T01:07:47;12.43;;;7.77;;
19030;SDS011;9648;51.130;13.978;2022-10-13T01:10:16;11.90;;;7.70;;
19030;SDS011;9648;51.130;13.978;2022-10-13T01:12:56;14.55;;;8.50;;
19030;SDS011;9648;51.130;13.978;2022-10-13T01:15:27;14.63;;;8.65;;
19030;SDS011;9648;51.130;13.978;2022-10-13T01:18:00;13.55;;;8.07;;
19030;SDS011;9648;51.130;13.978;2022-10-13T01:20:43;10.93;;;7.65;;
19030;SDS011;9648;51.130;13.978;2022-10-13T01:23:41;15.52;;;8.30;;
19030;SDS011;9648;51.130;13.978;2022-10-13T01:29:59;11.93;;;7.90;;
19030;SDS011;9648;51.130;13.978;2022-10-13T01:32:35;11.20;;;7.70;;
19030;SDS011;9648;51.130;13.978;2022-10-13T01:35:11;11.97;;;7.50;;
19030;SDS011;9648;51.130;13.978;2022-10-13T01:37:43;13.40;;;8.55;;
19030;SDS011;9648;51.130;13.978;2022-10-13T01:40:14;14.85;;;8.38;;
19030;SDS011;9648;51.130;13.978;2022-10-13T01:42:50;11.75;;;7.80;;
19030;SDS011;9648;51.130;13.978;2022-10-13T01:45:27;13.48;;;8.52;;
19030;SDS011;9648;51.130;13.978;2022-10-13T01:47:57;13.35;;;8.88;;
19030;SDS011;9648;51.130;13.978;2022-10-13T01:50:24;11.88;;;8.32;;
19030;SDS011;9648;51.130;13.978;2022-10-13T01:52:52;14.37;;;8.37;;
19030;SDS011;9648;51.130;13.978;2022-10-13T01:55:20;15.55;;;8.85;;
19030;SDS011;9648;51.130;13.978;2022-10-13T01:57:47;14.68;;;8.63;;
19030;SDS011;9648;51.130;13.978;2022-10-13T02:00:15;11.55;;;7.45;;
19030;SDS011;9648;51.130;13.978;2022-10-13T02:02:48;12.75;;;7.75;;
19030;SDS011;9648;51.130;13.978;2022-10-13T02:05:26;12.77;;;8.07;;
19030;SDS011;9648;51.130;13.978;2022-10-13T02:08:02;11.38;;;7.80;;
19030;SDS011;9648;51.130;13.978;2022-10-13T02:10:33;13.97;;;8.60;;
19030;SDS011;9648;51.130;13.978;2022-10-13T02:13:05;13.45;;;7.75;;
19030;SDS011;9648;51.130;13.978;2022-10-13T02:15:38;13.52;;;8.02;;
19030;SDS011;9648;51.130;13.978;2022-10-13T02:18:12;12.57;;;7.95;;
19030;SDS011;9648;51.130;13.978;2022-10-13T02:20:40;14.43;;;8.77;;
19030;SDS011;9648;51.130;13.978;2022-10-13T02:23:11;13.80;;;7.72;;
19030;SDS011;9648;51.130;13.978;2022-10-13T02:25:39;13.52;;;8.30;;
19030;SDS011;9648;51.130;13.978;2022-10-13T02:28:07;13.60;;;8.30;;
19030;SDS011;9648;51.130;13.978;2022-10-13T02:30:37;13.77;;;8.50;;
19030;SDS011;9648;51.130;13.978;2022-10-13T02:33:05;12.55;;;8.05;;
19030;SDS011;9648;51.130;13.978;2022-10-13T02:35:34;13.75;;;8.00;;
19030;SDS011;9648;51.130;13.978;2022-10-13T02:38:01;17.27;;;9.45;;
19030;SDS011;9648;51.130;13.978;2022-10-13T02:40:28;13.40;;;8.48;;
19030;SDS011;9648;51.130;13.978;2022-10-13T02:42:55;14.20;;;8.60;;
19030;SDS011;9648;51.130;13.978;2022-10-13T02:45:22;15.15;;;9.05;;
19030;SDS011;9648;51.130;13.978;2022-10-13T02:47:49;15.07;;;9.05;;
19030;SDS011;9648;51.130;13.978;2022-10-13T02:50:16;15.45;;;9.18;;
19030;SDS011;9648;51.130;13.978;2022-10-13T02:52:44;14.52;;;8.60;;
19030;SDS011;9648;51.130;13.978;2022-10-13T02:55:11;17.10;;;9.55;;
19030;SDS011;9648;51.130;13.978;2022-10-13T02:57:38;15.65;;;9.43;;
19030;SDS011;9648;51.130;13.978;2022-10-13T03:00:05;16.30;;;8.90;;
19030;SDS011;9648;51.130;13.978;2022-10-13T03:02:33;15.82;;;9.65;;
19030;SDS011;9648;51.130;13.978;2022-10-13T03:05:00;17.70;;;9.38;;
19030;SDS011;9648;51.130;13.978;2022-10-13T03:07:27;13.40;;;8.13;;
19030;SDS011;9648;51.130;13.978;2022-10-13T03:09:55;12.98;;;8.63;;
19030;SDS011;9648;51.130;13.978;2022-10-13T03:12:22;13.63;;;8.25;;
19030;SDS011;9648;51.130;13.978;2022-10-13T03:14:48;13.07;;;7.93;;
19030;SDS011;9648;51.130;13.978;2022-10-13T03:17:15;12.95;;;8.65;;
19030;SDS011;9648;51.130;13.978;2022-10-13T03:19:42;14.60;;;8.65;;
19030;SDS011;9648;51.130;13.978;2022-10-13T03:22:09;14.77;;;9.30;;
19030;SDS011;9648;51.130;13.978;2022-10-13T03:24:38;13.80;;;8.70;;
19030;SDS011;9648;51.130;13.978;2022-10-13T03:27:06;14.90;;;8.80;;
19030;SDS011;9648;51.130;13.978;2022-10-13T03:29:33;16.80;;;9.40;;
19030;SDS011;9648;51.130;13.978;2022-10-13T03:32:00;15.70;;;8.70;;
19030;SDS011;9648;51.130;13.978;2022-10-13T03:34:27;16.35;;;9.10;;
19030;SDS011;9648;51.130;13.978;2022-10-13T03:36:54;13.90;;;8.85;;
19030;SDS011;9648;51.130;13.978;2022-10-13T03:39:21;14.70;;;8.95;;
19030;SDS011;9648;51.130;13.978;2022-10-13T03:41:48;15.00;;;8.95;;
19030;SDS011;9648;51.130;13.978;2022-10-13T03:44:17;16.67;;;9.18;;
19030;SDS011;9648;51.130;13.978;2022-10-13T03:46:43;13.88;;;9.18;;
19030;SDS011;9648;51.130;13.978;2022-10-13T03:49:10;18.08;;;9.60;;
19030;SDS011;9648;51.130;13.978;2022-10-13T03:51:37;14.07;;;9.20;;
19030;SDS011;9648;51.130;13.978;2022-10-13T03:54:05;15.98;;;9.85;;
19030;SDS011;9648;51.130;13.978;2022-10-13T03:56:31;17.02;;;10.27;;
19030;SDS011;9648;51.130;13.978;2022-10-13T03:58:59;15.27;;;9.73;;
19030;SDS011;9648;51.130;13.978;2022-10-13T04:01:30;14.35;;;9.23;;
19030;SDS011;9648;51.130;13.978;2022-10-13T04:03:58;14.88;;;9.90;;
19030;SDS011;9648;51.130;13.978;2022-10-13T04:06:27;13.03;;;8.70;;
19030;SDS011;9648;51.130;13.978;2022-10-13T04:08:55;12.27;;;8.65;;
19030;SDS011;9648;51.130;13.978;2022-10-13T04:11:22;13.25;;;8.77;;
19030;SDS011;9648;51.130;13.978;2022-10-13T04:13:49;12.15;;;8.73;;
19030;SDS011;9648;51.130;13.978;2022-10-13T04:16:17;17.38;;;9.93;;
19030;SDS011;9648;51.130;13.978;2022-10-13T04:18:49;15.82;;;10.00;;
19030;SDS011;9648;51.130;13.978;2022-10-13T04:21:17;15.38;;;9.57;;
19030;SDS011;9648;51.130;13.978;2022-10-13T04:23:44;15.18;;;9.35;;
19030;SDS011;9648;51.130;13.978;2022-10-13T04:26:13;14.15;;;9.70;;
19030;SDS011;9648;51.130;13.978;2022-10-13T04:28:42;18.48;;;10.00;;
19030;SDS011;9648;51.130;13.978;2022-10-13T04:31:10;16.17;;;10.00;;
19030;SDS011;9648;51.130;13.978;2022-10-13T04:33:36;14.52;;;9.98;;
19030;SDS011;9648;51.130;13.978;2022-10-13T04:36:08;12.32;;;8.85;;
19030;SDS011;9648;51.130;13.978;2022-10-13T04:38:37;18.80;;;10.25;;
19030;SDS011;9648;51.130;13.978;2022-10-13T04:41:04;15.40;;;10.23;;
19030;SDS011;9648;51.130;13.978;2022-10-13T04:43:32;19.40;;;11.02;;
19030;SDS011;9648;51.130;13.978;2022-10-13T04:46:00;16.17;;;10.63;;
19030;SDS011;9648;51.130;13.978;2022-10-13T04:48:27;16.65;;;11.00;;
19030;SDS011;9648;51.130;13.978;2022-10-13T04:50:57;15.93;;;10.35;;
19030;SDS011;9648;51.130;13.978;2022-10-13T04:53:26;15.25;;;10.05;;
19030;SDS011;9648;51.130;13.978;2022-10-13T04:55:54;14.60;;;10.30;;
19030;SDS011;9648;51.130;13.978;2022-10-13T04:58:21;18.23;;;10.88;;
19030;SDS011;9648;51.130;13.978;2022-10-13T05:00:48;19.02;;;11.07;;
19030;SDS011;9648;51.130;13.978;2022-10-13T05:03:15;16.60;;;10.23;;
19030;SDS011;9648;51.130;13.978;2022-10-13T05:05:42;16.15;;;10.73;;
19030;SDS011;9648;51.130;13.978;2022-10-13T05:08:09;14.32;;;9.65;;
19030;SDS011;9648;51.130;13.978;2022-10-13T05:10:37;15.65;;;9.73;;
19030;SDS011;9648;51.130;13.978;2022-10-13T05:13:04;15.48;;;10.60;;
19030;SDS011;9648;51.130;13.978;2022-10-13T05:15:31;15.00;;;10.60;;
19030;SDS011;9648;51.130;13.978;2022-10-13T05:17:58;18.80;;;10.90;;
19030;SDS011;9648;51.130;13.978;2022-10-13T05:20:25;14.68;;;9.65;;
19030;SDS011;9648;51.130;13.978;2022-10-13T05:22:52;16.35;;;10.23;;
19030;SDS011;9648;51.130;13.978;2022-10-13T05:25:19;18.38;;;10.85;;
19030;SDS011;9648;51.130;13.978;2022-10-13T05:27:47;17.48;;;10.57;;
19030;SDS011;9648;51.130;13.978;2022-10-13T05:30:14;16.50;;;10.60;;
19030;SDS011;9648;51.130;13.978;2022-10-13T05:32:41;16.27;;;10.45;;
19030;SDS011;9648;51.130;13.978;2022-10-13T05:35:08;21.60;;;11.75;;
19030;SDS011;9648;51.130;13.978;2022-10-13T05:37:35;15.48;;;10.07;;
19030;SDS011;9648;51.130;13.978;2022-10-13T05:40:01;18.47;;;10.87;;
19030;SDS011;9648;51.130;13.978;2022-10-13T05:42:29;14.82;;;9.70;;
19030;SDS011;9648;51.130;13.978;2022-10-13T05:44:57;18.65;;;11.10;;
19030;SDS011;9648;51.130;13.978;2022-10-13T05:47:24;15.68;;;10.35;;
19030;SDS011;9648;51.130;13.978;2022-10-13T05:49:52;17.80;;;10.90;;
19030;SDS011;9648;51.130;13.978;2022-10-13T05:52:19;15.40;;;10.50;;
19030;SDS011;9648;51.130;13.978;2022-10-13T05:54:48;14.30;;;9.80;;
19030;SDS011;9648;51.130;13.978;2022-10-13T05:57:19;18.02;;;10.50;;
19030;SDS011;9648;51.130;13.978;2022-10-13T05:59:49;18.02;;;10.90;;
19030;SDS011;9648;51.130;13.978;2022-10-13T06:02:21;16.48;;;9.80;;
19030;SDS011;9648;51.130;13.978;2022-10-13T06:04:52;12.70;;;9.50;;
19030;SDS011;9648;51.130;13.978;2022-10-13T06:07:21;17.38;;;10.80;;
19030;SDS011;9648;51.130;13.978;2022-10-13T06:09:49;18.40;;;10.80;;
19030;SDS011;9648;51.130;13.978;2022-10-13T06:12:16;18.03;;;10.97;;
19030;SDS011;9648;51.130;13.978;2022-10-13T06:14:43;17.30;;;10.40;;
19030;SDS011;9648;51.130;13.978;2022-10-13T06:17:11;16.17;;;11.05;;
19030;SDS011;9648;51.130;13.978;2022-10-13T06:19:39;17.05;;;10.25;;
19030;SDS011;9648;51.130;13.978;2022-10-13T06:22:06;13.88;;;10.23;;
19030;SDS011;9648;51.130;13.978;2022-10-13T06:24:33;16.90;;;10.30;;
19030;SDS011;9648;51.130;13.978;2022-10-13T06:27:00;16.95;;;10.60;;
19030;SDS011;9648;51.130;13.978;2022-10-13T06:29:27;14.20;;;9.95;;
19030;SDS011;9648;51.130;13.978;2022-10-13T06:31:54;17.90;;;10.70;;
19030;SDS011;9648;51.130;13.978;2022-10-13T06:34:21;16.13;;;10.33;;
19030;SDS011;9648;51.130;13.978;2022-10-13T06:36:49;18.50;;;10.55;;
19030;SDS011;9648;51.130;13.978;2022-10-13T06:39:15;17.08;;;9.50;;
19030;SDS011;9648;51.130;13.978;2022-10-13T06:41:42;16.92;;;9.93;;
19030;SDS011;9648;51.130;13.978;2022-10-13T06:44:09;17.67;;;10.40;;
19030;SDS011;9648;51.130;13.978;2022-10-13T06:46:36;16.23;;;10.45;;
19030;SDS011;9648;51.130;13.978;2022-10-13T06:49:03;15.73;;;10.32;;
19030;SDS011;9648;51.130;13.978;2022-10-13T06:51:30;14.07;;;9.30;;
19030;SDS011;9648;51.130;13.978;2022-10-13T06:53:58;17.67;;;10.63;;
19030;SDS011;9648;51.130;13.978;2022-10-13T06:56:25;12.98;;;9.75;;
19030;SDS011;9648;51.130;13.978;2022-10-13T06:58:52;18.77;;;11.05;;
19030;SDS011;9648;51.130;13.978;2022-10-13T07:01:18;21.15;;;11.68;;
19030;SDS011;9648;51.130;13.978;2022-10-13T07:03:47;17.80;;;11.07;;
19030;SDS011;9648;51.130;13.978;2022-10-13T07:06:14;18.52;;;12.27;;
19030;SDS011;9648;51.130;13.978;2022-10-13T07:08:40;17.65;;;10.80;;
19030;SDS011;9648;51.130;13.978;2022-10-13T07:11:09;18.20;;;10.90;;
19030;SDS011;9648;51.130;13.978;2022-10-13T07:13:37;21.50;;;11.85;;
19030;SDS011;9648;51.130;13.978;2022-10-13T07:16:04;19.50;;;12.05;;
19030;SDS011;9648;51.130;13.978;2022-10-13T07:18:32;22.90;;;13.05;;
19030;SDS011;9648;51.130;13.978;2022-10-13T07:20:59;16.13;;;10.95;;
19030;SDS011;9648;51.130;13.978;2022-10-13T07:23:27;16.17;;;10.90;;
19030;SDS011;9648;51.130;13.978;2022-10-13T07:25:54;16.95;;;10.35;;
19030;SDS011;9648;51.130;13.978;2022-10-13T07:28:23;18.60;;;10.60;;
19030;SDS011;9648;51.130;13.978;2022-10-13T07:30:51;15.50;;;10.15;;
19030;SDS011;9648;51.130;13.978;2022-10-13T07:33:18;13.87;;;9.40;;
19030;SDS011;9648;51.130;13.978;2022-10-13T07:35:45;17.33;;;10.70;;
19030;SDS011;9648;51.130;13.978;2022-10-13T07:38:11;20.70;;;10.68;;
19030;SDS011;9648;51.130;13.978;2022-10-13T07:40:38;16.67;;;10.40;;
19030;SDS011;9648;51.130;13.978;2022-10-13T07:43:05;20.00;;;11.07;;
19030;SDS011;9648;51.130;13.978;2022-10-13T07:45:33;16.05;;;9.77;;
19030;SDS011;9648;51.130;13.978;2022-10-13T07:48:00;17.83;;;10.75;;
19030;SDS011;9648;51.130;13.978;2022-10-13T07:50:27;17.83;;;10.65;;
19030;SDS011;9648;51.130;13.978;2022-10-13T07:52:54;15.25;;;10.20;;
19030;SDS011;9648;51.130;13.978;2022-10-13T07:55:21;18.67;;;10.68;;
19030;SDS011;9648;51.130;13.978;2022-10-13T07:57:47;20.05;;;11.82;;
19030;SDS011;9648;51.130;13.978;2022-10-13T08:00:14;18.35;;;11.45;;
19030;SDS011;9648;51.130;13.978;2022-10-13T08:02:43;18.73;;;11.23;;
19030;SDS011;9648;51.130;13.978;2022-10-13T08:05:10;20.17;;;11.60;;
19030;SDS011;9648;51.130;13.978;2022-10-13T08:07:36;17.08;;;11.18;;
19030;SDS011;9648;51.130;13.978;2022-10-13T08:10:04;17.05;;;10.32;;
19030;SDS011;9648;51.130;13.978;2022-10-13T08:12:31;16.33;;;10.43;;
19030;SDS011;9648;51.130;13.978;2022-10-13T08:15:00;16.05;;;10.40;;
19030;SDS011;9648;51.130;13.978;2022-10-13T08:17:27;18.23;;;10.50;;
19030;SDS011;9648;51.130;13.978;2022-10-13T08:19:55;17.00;;;10.20;;
19030;SDS011;9648;51.130;13.978;2022-10-13T08:22:22;13.47;;;9.87;;
19030;SDS011;9648;51.130;13.978;2022-10-13T08:24:49;14.52;;;10.18;;
19030;SDS011;9648;51.130;13.978;2022-10-13T08:27:18;15.40;;;9.60;;
19030;SDS011;9648;51.130;13.978;2022-10-13T08:29:46;16.17;;;10.40;;
19030;SDS011;9648;51.130;13.978;2022-10-13T08:32:13;14.50;;;9.70;;
19030;SDS011;9648;51.130;13.978;2022-10-13T08:34:40;21.20;;;11.55;;
19030;SDS011;9648;51.130;13.978;2022-10-13T08:37:13;16.30;;;10.35;;
19030;SDS011;9648;51.130;13.978;2022-10-13T08:39:41;16.65;;;10.70;;
19030;SDS011;9648;51.130;13.978;2022-10-13T08:42:12;16.63;;;10.38;;
19030;SDS011;9648;51.130;13.978;2022-10-13T08:44:43;14.75;;;9.85;;
19030;SDS011;9648;51.130;13.978;2022-10-13T08:47:12;14.98;;;9.20;;
19030;SDS011;9648;51.130;13.978;2022-10-13T08:49:46;15.13;;;9.77;;
19030;SDS011;9648;51.130;13.978;2022-10-13T08:52:17;19.90;;;10.77;;
19030;SDS011;9648;51.130;13.978;2022-10-13T08:54:46;18.02;;;10.68;;
19030;SDS011;9648;51.130;13.978;2022-10-13T08:57:13;17.50;;;10.45;;
19030;SDS011;9648;51.130;13.978;2022-10-13T08:59:40;17.37;;;10.60;;
19030;SDS011;9648;51.130;13.978;2022-10-13T09:02:11;15.45;;;9.85;;
19030;SDS011;9648;51.130;13.978;2022-10-13T09:04:39;18.23;;;10.52;;
19030;SDS011;9648;51.130;13.978;2022-10-13T09:07:11;18.43;;;10.73;;
19030;SDS011;9648;51.130;13.978;2022-10-13T09:09:42;19.55;;;11.00;;
19030;SDS011;9648;51.130;13.978;2022-10-13T09:12:09;14.68;;;9.73;;
19030;SDS011;9648;51.130;13.978;2022-10-13T09:14:38;14.50;;;9.43;;
19030;SDS011;9648;51.130;13.978;2022-10-13T09:17:12;16.85;;;10.68;;
19030;SDS011;9648;51.130;13.978;2022-10-13T09:19:44;14.27;;;9.32;;
19030;SDS011;9648;51.130;13.978;2022-10-13T09:22:23;15.50;;;9.60;;
19030;SDS011;9648;51.130;13.978;2022-10-13T09:27:48;15.98;;;9.57;;
19030;SDS011;9648;51.130;13.978;2022-10-13T09:30:23;15.88;;;9.57;;
19030;SDS011;9648;51.130;13.978;2022-10-13T09:33:12;16.10;;;10.00;;
19030;SDS011;9648;51.130;13.978;2022-10-13T09:35:47;14.23;;;8.95;;
19030;SDS011;9648;51.130;13.978;2022-10-13T09:38:31;15.13;;;9.30;;
19030;SDS011;9648;51.130;13.978;2022-10-13T09:41:02;14.93;;;9.80;;
19030;SDS011;9648;51.130;13.978;2022-10-13T09:43:31;15.90;;;9.77;;
19030;SDS011;9648;51.130;13.978;2022-10-13T09:45:59;16.45;;;9.05;;
19030;SDS011;9648;51.130;13.978;2022-10-13T09:48:29;13.60;;;9.45;;
19030;SDS011;9648;51.130;13.978;2022-10-13T09:50:58;16.38;;;10.00;;
19030;SDS011;9648;51.130;13.978;2022-10-13T09:53:27;13.32;;;9.90;;
19030;SDS011;9648;51.130;13.978;2022-10-13T09:56:08;15.70;;;9.50;;
19030;SDS011;9648;51.130;13.978;2022-10-13T09:58:43;14.88;;;9.85;;
19030;SDS011;9648;51.130;13.978;2022-10-13T10:01:17;16.65;;;8.98;;
19030;SDS011;9648;51.130;13.978;2022-10-13T10:03:48;16.23;;;9.05;;
19030;SDS011;9648;51.130;13.978;2022-10-13T10:06:15;14.23;;;8.82;;
19030;SDS011;9648;51.130;13.978;2022-10-13T10:08:43;14.30;;;8.50;;
19030;SDS011;9648;51.130;13.978;2022-10-13T10:11:19;13.40;;;8.93;;
19030;SDS011;9648;51.130;13.978;2022-10-13T10:13:51;16.00;;;8.90;;
19030;SDS011;9648;51.130;13.978;2022-10-13T10:16:21;13.48;;;8.82;;
19030;SDS011;9648;51.130;13.978;2022-10-13T10:18:56;16.90;;;10.07;;
19030;SDS011;9648;51.130;13.978;2022-10-13T10:21:30;16.08;;;9.45;;
19030;SDS011;9648;51.130;13.978;2022-10-13T10:24:04;15.48;;;8.63;;
19030;SDS011;9648;51.130;13.978;2022-10-13T10:26:47;13.57;;;8.57;;
19030;SDS011;9648;51.130;13.978;2022-10-13T10:29:22;14.88;;;8.98;;
19030;SDS011;9648;51.130;13.978;2022-10-13T10:32:00;15.30;;;8.70;;
19030;SDS011;9648;51.130;13.978;2022-10-13T10:34:35;12.73;;;7.70;;
19030;SDS011;9648;51.130;13.978;2022-10-13T10:37:12;16.03;;;9.17;;
19030;SDS011;9648;51.130;13.978;2022-10-13T10:39:45;13.20;;;8.82;;
19030;SDS011;9648;51.130;13.978;2022-10-13T10:42:23;16.42;;;9.10;;
19030;SDS011;9648;51.130;13.978;2022-10-13T10:45:11;13.00;;;8.30;;
19030;SDS011;9648;51.130;13.978;2022-10-13T10:47:42;14.02;;;8.35;;
19030;SDS011;9648;51.130;13.978;2022-10-13T10:50:14;16.08;;;9.63;;
19030;SDS011;9648;51.130;13.978;2022-10-13T10:52:45;15.75;;;9.20;;
19030;SDS011;9648;51.130;13.978;2022-10-13T10:55:28;17.40;;;9.03;;
19030;SDS011;9648;51.130;13.978;2022-10-13T10:58:03;14.30;;;8.75;;
19030;SDS011;9648;51.130;13.978;2022-10-13T11:00:37;14.88;;;8.52;;
19030;SDS011;9648;51.130;13.978;2022-10-13T11:03:14;12.65;;;8.05;;
19030;SDS011;9648;51.130;13.978;2022-10-13T11:05:57;14.80;;;9.47;;
19030;SDS011;9648;51.130;13.978;2022-10-13T11:08:27;13.13;;;8.50;;
19030;SDS011;9648;51.130;13.978;2022-10-13T11:13:56;15.45;;;9.10;;
19030;SDS011;9648;51.130;13.978;2022-10-13T11:16:29;18.40;;;9.27;;
19030;SDS011;9648;51.130;13.978;2022-10-13T11:18:59;13.60;;;8.48;;
19030;SDS011;9648;51.130;13.978;2022-10-13T11:24:56;14.67;;;8.80;;
19030;SDS011;9648;51.130;13.978;2022-10-13T11:27:42;15.47;;;8.20;;
19030;SDS011;9648;51.130;13.978;2022-10-13T11:35:57;13.43;;;7.93;;
19030;SDS011;9648;51.130;13.978;2022-10-13T11:38:55;11.98;;;7.78;;
19030;SDS011;9648;51.130;13.978;2022-10-13T11:41:33;13.07;;;7.70;;
19030;SDS011;9648;51.130;13.978;2022-10-13T11:44:06;12.70;;;7.40;;
19030;SDS011;9648;51.130;13.978;2022-10-13T11:46:49;12.05;;;6.50;;
19030;SDS011;9648;51.130;13.978;2022-10-13T11:49:35;12.32;;;7.70;;
19030;SDS011;9648;51.130;13.978;2022-10-13T11:52:26;12.40;;;7.70;;
19030;SDS011;9648;51.130;13.978;2022-10-13T11:55:11;9.00;;;6.70;;
19030;SDS011;9648;51.130;13.978;2022-10-13T11:57:40;13.23;;;7.65;;
19030;SDS011;9648;51.130;13.978;2022-10-13T12:00:10;11.80;;;7.03;;
19030;SDS011;9648;51.130;13.978;2022-10-13T12:02:47;16.48;;;8.38;;
19030;SDS011;9648;51.130;13.978;2022-10-13T12:05:19;13.38;;;7.88;;
19030;SDS011;9648;51.130;13.978;2022-10-13T12:07:48;10.77;;;7.10;;
19030;SDS011;9648;51.130;13.978;2022-10-13T12:10:17;11.77;;;7.50;;
19030;SDS011;9648;51.130;13.978;2022-10-13T12:12:48;12.00;;;7.43;;
19030;SDS011;9648;51.130;13.978;2022-10-13T12:15:26;11.57;;;6.57;;
19030;SDS011;9648;51.130;13.978;2022-10-13T12:17:57;11.32;;;7.00;;
19030;SDS011;9648;51.130;13.978;2022-10-13T12:20:24;10.52;;;6.80;;
19030;SDS011;9648;51.130;13.978;2022-10-13T12:22:53;11.35;;;7.00;;
19030;SDS011;9648;51.130;13.978;2022-10-13T12:25:21;10.38;;;6.50;;
19030;SDS011;9648;51.130;13.978;2022-10-13T12:27:50;14.07;;;7.10;;
19030;SDS011;9648;51.130;13.978;2022-10-13T12:30:19;12.90;;;6.25;;
19030;SDS011;9648;51.130;13.978;2022-10-13T12:32:48;13.77;;;7.60;;
19030;SDS011;9648;51.130;13.978;2022-10-13T12:35:18;14.45;;;7.93;;
19030;SDS011;9648;51.130;13.978;2022-10-13T12:37:46;16.50;;;7.60;;
19030;SDS011;9648;51.130;13.978;2022-10-13T12:40:14;10.75;;;6.40;;
19030;SDS011;9648;51.130;13.978;2022-10-13T12:42:43;14.77;;;7.95;;
19030;SDS011;9648;51.130;13.978;2022-10-13T12:45:13;13.37;;;7.07;;
19030;SDS011;9648;51.130;13.978;2022-10-13T12:47:45;12.43;;;7.53;;
19030;SDS011;9648;51.130;13.978;2022-10-13T12:50:30;12.15;;;7.30;;
19030;SDS011;9648;51.130;13.978;2022-10-13T12:53:03;13.45;;;7.05;;
19030;SDS011;9648;51.130;13.978;2022-10-13T12:55:44;13.48;;;7.38;;
19030;SDS011;9648;51.130;13.978;2022-10-13T12:58:16;17.80;;;8.90;;
19030;SDS011;9648;51.130;13.978;2022-10-13T13:00:53;15.43;;;8.95;;
19030;SDS011;9648;51.130;13.978;2022-10-13T13:03:32;14.43;;;8.35;;
19030;SDS011;9648;51.130;13.978;2022-10-13T13:06:21;12.48;;;7.88;;
19030;SDS011;9648;51.130;13.978;2022-10-13T13:09:07;13.52;;;8.15;;
19030;SDS011;9648;51.130;13.978;2022-10-13T13:11:46;15.57;;;8.27;;
19030;SDS011;9648;51.130;13.978;2022-10-13T13:14:23;13.95;;;8.50;;
19030;SDS011;9648;51.130;13.978;2022-10-13T13:17:07;12.53;;;8.50;;
19030;SDS011;9648;51.130;13.978;2022-10-13T13:19:37;15.77;;;9.00;;
19030;SDS011;9648;51.130;13.978;2022-10-13T13:22:07;12.88;;;8.55;;
19030;SDS011;9648;51.130;13.978;2022-10-13T13:24:34;12.60;;;8.45;;
19030;SDS011;9648;51.130;13.978;2022-10-13T13:27:06;13.13;;;8.00;;
19030;SDS011;9648;51.130;13.978;2022-10-13T13:29:40;13.15;;;8.10;;
19030;SDS011;9648;51.130;13.978;2022-10-13T13:32:08;14.57;;;9.23;;
19030;SDS011;9648;51.130;13.978;2022-10-13T13:34:37;16.25;;;9.55;;
19030;SDS011;9648;51.130;13.978;2022-10-13T13:37:04;14.45;;;8.95;;
19030;SDS011;9648;51.130;13.978;2022-10-13T13:39:32;16.05;;;9.43;;
19030;SDS011;9648;51.130;13.978;2022-10-13T13:41:59;14.25;;;8.60;;
19030;SDS011;9648;51.130;13.978;2022-10-13T13:44:26;16.15;;;8.40;;
19030;SDS011;9648;51.130;13.978;2022-10-13T13:46:53;14.13;;;8.93;;
19030;SDS011;9648;51.130;13.978;2022-10-13T13:49:19;18.23;;;9.65;;
19030;SDS011;9648;51.130;13.978;2022-10-13T13:51:46;13.93;;;8.80;;
19030;SDS011;9648;51.130;13.978;2022-10-13T13:54:13;15.68;;;9.20;;
19030;SDS011;9648;51.130;13.978;2022-10-13T13:56:41;12.50;;;8.60;;
19030;SDS011;9648;51.130;13.978;2022-10-13T13:59:08;13.98;;;9.38;;
19030;SDS011;9648;51.130;13.978;2022-10-13T14:01:35;14.18;;;9.43;;
19030;SDS011;9648;51.130;13.978;2022-10-13T14:04:02;16.40;;;10.00;;
19030;SDS011;9648;51.130;13.978;2022-10-13T14:06:29;13.85;;;8.50;;
19030;SDS011;9648;51.130;13.978;2022-10-13T14:08:55;13.43;;;8.53;;
19030;SDS011;9648;51.130;13.978;2022-10-13T14:11:22;16.02;;;10.30;;
19030;SDS011;9648;51.130;13.978;2022-10-13T14:13:51;15.60;;;10.57;;
19030;SDS011;9648;51.130;13.978;2022-10-13T14:16:17;19.45;;;10.68;;
19030;SDS011;9648;51.130;13.978;2022-10-13T14:18:44;15.38;;;9.43;;
19030;SDS011;9648;51.130;13.978;2022-10-13T14:21:11;11.80;;;8.85;;
19030;SDS011;9648;51.130;13.978;2022-10-13T14:23:38;13.80;;;9.30;;
19030;SDS011;9648;51.130;13.978;2022-10-13T14:26:09;15.10;;;9.70;;
19030;SDS011;9648;51.130;13.978;2022-10-13T14:28:36;15.65;;;9.38;;
19030;SDS011;9648;51.130;13.978;2022-10-13T14:31:07;17.40;;;9.90;;
19030;SDS011;9648;51.130;13.978;2022-10-13T14:33:35;17.08;;;10.27;;
19030;SDS011;9648;51.130;13.978;2022-10-13T14:36:03;17.88;;;11.05;;
19030;SDS011;9648;51.130;13.978;2022-10-13T14:38:31;16.65;;;10.98;;
19030;SDS011;9648;51.130;13.978;2022-10-13T14:40:58;17.42;;;10.35;;
19030;SDS011;9648;51.130;13.978;2022-10-13T14:43:26;15.23;;;9.98;;
19030;SDS011;9648;51.130;13.978;2022-10-13T14:45:53;16.30;;;9.05;;
19030;SDS011;9648;51.130;13.978;2022-10-13T14:48:22;17.05;;;9.80;;
19030;SDS011;9648;51.130;13.978;2022-10-13T14:50:49;15.93;;;10.93;;
19030;SDS011;9648;51.130;13.978;2022-10-13T14:53:15;13.13;;;9.37;;
19030;SDS011;9648;51.130;13.978;2022-10-13T14:55:43;15.15;;;9.70;;
19030;SDS011;9648;51.130;13.978;2022-10-13T14:58:10;15.60;;;10.00;;
19030;SDS011;9648;51.130;13.978;2022-10-13T15:00:37;15.55;;;10.02;;
19030;SDS011;9648;51.130;13.978;2022-10-13T15:03:04;17.65;;;10.70;;
19030;SDS011;9648;51.130;13.978;2022-10-13T15:05:32;15.82;;;10.77;;